sensor_id;sensor_type;location;lat;lon;timestamp;temperature;humidity
4050;DHT22;2039;50.894;6.888;2023-07-13T00:00:46;21.20;1.00
4050;DHT22;2039;50.894;6.888;2023-07-13T00:03:12;21.20;1.00
4050;DHT22;2039;50.894;6.888;2023-07-13T00:05:39;21.30;1.00
4050;DHT22;2039;50.894;6.888;2023-07-13T00:08:07;21.30;1.00
4050;DHT22;2039;50.894;6.888;2023-07-13T00:10:33;21.30;1.00
4050;DHT22;2039;50.894;6.888;2023-07-13T00:12:59;21.20;1.00
4050;DHT22;2039;50.894;6.888;2023-07-13T00:15:26;21.20;1.00
4050;DHT22;2039;50.894;6.888;2023-07-13T00:17:54;21.20;1.00
4050;DHT22;2039;50.894;6.888;2023-07-13T00:20:22;21.20;1.00
4050;DHT22;2039;50.894;6.888;2023-07-13T00:22:48;21.10;1.00
4050;DHT22;2039;50.894;6.888;2023-07-13T00:25:15;21.20;1.00
4050;DHT22;2039;50.894;6.888;2023-07-13T00:27:42;21.20;1.00
4050;DHT22;2039;50.894;6.888;2023-07-13T00:30:08;21.20;1.00
4050;DHT22;2039;50.894;6.888;2023-07-13T00:32:34;21.10;1.00
4050;DHT22;2039;50.894;6.888;2023-07-13T00:35:01;21.00;1.00
4050;DHT22;2039;50.894;6.888;2023-07-13T00:37:26;21.00;1.00
4050;DHT22;2039;50.894;6.888;2023-07-13T00:42:20;20.90;1.00
4050;DHT22;2039;50.894;6.888;2023-07-13T00:47:28;20.70;1.00
4050;DHT22;2039;50.894;6.888;2023-07-13T00:49:53;20.70;1.00
4050;DHT22;2039;50.894;6.888;2023-07-13T00:52:19;20.80;1.00
4050;DHT22;2039;50.894;6.888;2023-07-13T00:54:46;20.80;1.00
4050;DHT22;2039;50.894;6.888;2023-07-13T00:57:15;20.80;1.00
4050;DHT22;2039;50.894;6.888;2023-07-13T00:59:50;20.80;1.00
4050;DHT22;2039;50.894;6.888;2023-07-13T01:02:17;20.70;1.00
4050;DHT22;2039;50.894;6.888;2023-07-13T01:04:43;20.60;1.00
4050;DHT22;2039;50.894;6.888;2023-07-13T01:07:09;20.50;1.00
4050;DHT22;2039;50.894;6.888;2023-07-13T01:09:36;20.40;1.00
4050;DHT22;2039;50.894;6.888;2023-07-13T01:12:02;20.40;1.00
4050;DHT22;2039;50.894;6.888;2023-07-13T01:14:28;20.40;1.00
4050;DHT22;2039;50.894;6.888;2023-07-13T01:16:54;20.50;1.00
4050;DHT22;2039;50.894;6.888;2023-07-13T01:19:40;20.60;1.00
4050;DHT22;2039;50.894;6.888;2023-07-13T01:22:12;20.50;1.00
4050;DHT22;2039;50.894;6.888;2023-07-13T01:24:40;20.40;1.00
4050;DHT22;2039;50.894;6.888;2023-07-13T01:27:07;20.30;1.00
4050;DHT22;2039;50.894;6.888;2023-07-13T01:29:35;20.30;1.00
4050;DHT22;2039;50.894;6.888;2023-07-13T01:32:15;20.20;1.00
4050;DHT22;2039;50.894;6.888;2023-07-13T01:34:41;20.10;1.00
4050;DHT22;2039;50.894;6.888;2023-07-13T01:37:08;20.20;1.00
4050;DHT22;2039;50.894;6.888;2023-07-13T01:39:35;20.00;1.00
4050;DHT22;2039;50.894;6.888;2023-07-13T01:42:01;20.00;1.00
4050;DHT22;2039;50.894;6.888;2023-07-13T01:44:27;19.90;1.00
4050;DHT22;2039;50.894;6.888;2023-07-13T01:46:52;20.00;1.00
4050;DHT22;2039;50.894;6.888;2023-07-13T01:49:18;20.00;1.00
4050;DHT22;2039;50.894;6.888;2023-07-13T01:51:44;20.00;1.00
4050;DHT22;2039;50.894;6.888;2023-07-13T01:54:10;20.00;1.00
4050;DHT22;2039;50.894;6.888;2023-07-13T01:56:35;19.90;1.00
4050;DHT22;2039;50.894;6.888;2023-07-13T01:59:01;20.00;1.00
4050;DHT22;2039;50.894;6.888;2023-07-13T02:01:26;20.00;1.00
4050;DHT22;2039;50.894;6.888;2023-07-13T02:03:52;20.00;1.00
4050;DHT22;2039;50.894;6.888;2023-07-13T02:06:18;19.80;1.00
4050;DHT22;2039;50.894;6.888;2023-07-13T02:08:43;19.90;1.00
4050;DHT22;2039;50.894;6.888;2023-07-13T02:11:09;19.60;1.00
4050;DHT22;2039;50.894;6.888;2023-07-13T02:13:35;19.70;1.00
4050;DHT22;2039;50.894;6.888;2023-07-13T02:16:00;19.70;1.00
4050;DHT22;2039;50.894;6.888;2023-07-13T02:18:26;19.80;1.00
4050;DHT22;2039;50.894;6.888;2023-07-13T02:20:52;19.90;1.00
4050;DHT22;2039;50.894;6.888;2023-07-13T02:23:18;19.70;1.00
4050;DHT22;2039;50.894;6.888;2023-07-13T02:25:45;19.80;1.00
4050;DHT22;2039;50.894;6.888;2023-07-13T02:28:11;19.70;1.00
4050;DHT22;2039;50.894;6.888;2023-07-13T02:30:37;19.70;1.00
4050;DHT22;2039;50.894;6.888;2023-07-13T02:33:04;19.70;1.00
4050;DHT22;2039;50.894;6.888;2023-07-13T02:35:30;19.70;1.00
4050;DHT22;2039;50.894;6.888;2023-07-13T02:37:55;19.70;1.00
4050;DHT22;2039;50.894;6.888;2023-07-13T02:40:21;19.70;1.00
4050;DHT22;2039;50.894;6.888;2023-07-13T02:42:47;19.70;1.00
4050;DHT22;2039;50.894;6.888;2023-07-13T02:45:12;19.70;1.00
4050;DHT22;2039;50.894;6.888;2023-07-13T02:47:40;19.80;1.00
4050;DHT22;2039;50.894;6.888;2023-07-13T02:50:07;19.80;1.00
4050;DHT22;2039;50.894;6.888;2023-07-13T02:52:33;19.80;1.00
4050;DHT22;2039;50.894;6.888;2023-07-13T02:54:59;19.70;1.00
4050;DHT22;2039;50.894;6.888;2023-07-13T02:57:24;19.70;1.00
4050;DHT22;2039;50.894;6.888;2023-07-13T02:59:50;19.70;1.00
4050;DHT22;2039;50.894;6.888;2023-07-13T03:02:16;19.60;1.00
4050;DHT22;2039;50.894;6.888;2023-07-13T03:04:42;19.60;1.00
4050;DHT22;2039;50.894;6.888;2023-07-13T03:07:07;19.70;1.00
4050;DHT22;2039;50.894;6.888;2023-07-13T03:09:34;19.60;1.00
4050;DHT22;2039;50.894;6.888;2023-07-13T03:12:00;19.60;1.00
4050;DHT22;2039;50.894;6.888;2023-07-13T03:14:26;19.60;1.00
4050;DHT22;2039;50.894;6.888;2023-07-13T03:16:52;19.60;1.00
4050;DHT22;2039;50.894;6.888;2023-07-13T03:19:18;19.70;1.00
4050;DHT22;2039;50.894;6.888;2023-07-13T03:21:43;19.60;1.00
4050;DHT22;2039;50.894;6.888;2023-07-13T03:24:09;19.60;1.00
4050;DHT22;2039;50.894;6.888;2023-07-13T03:26:35;19.60;1.00
4050;DHT22;2039;50.894;6.888;2023-07-13T03:29:01;19.50;1.00
4050;DHT22;2039;50.894;6.888;2023-07-13T03:31:29;19.50;1.00
4050;DHT22;2039;50.894;6.888;2023-07-13T03:33:56;19.50;1.00
4050;DHT22;2039;50.894;6.888;2023-07-13T03:36:25;19.50;1.00
4050;DHT22;2039;50.894;6.888;2023-07-13T03:38:56;19.40;1.00
4050;DHT22;2039;50.894;6.888;2023-07-13T03:41:23;19.50;1.00
4050;DHT22;2039;50.894;6.888;2023-07-13T03:43:50;19.30;1.00
4050;DHT22;2039;50.894;6.888;2023-07-13T03:46:16;19.20;1.00
4050;DHT22;2039;50.894;6.888;2023-07-13T03:48:44;19.00;1.00
4050;DHT22;2039;50.894;6.888;2023-07-13T03:51:12;18.90;1.00
4050;DHT22;2039;50.894;6.888;2023-07-13T03:53:41;18.80;1.00
4050;DHT22;2039;50.894;6.888;2023-07-13T03:56:07;18.80;1.00
4050;DHT22;2039;50.894;6.888;2023-07-13T03:58:35;18.80;1.00
4050;DHT22;2039;50.894;6.888;2023-07-13T04:01:03;18.90;1.00
4050;DHT22;2039;50.894;6.888;2023-07-13T04:03:29;18.80;1.00
4050;DHT22;2039;50.894;6.888;2023-07-13T04:05:58;18.80;1.00
4050;DHT22;2039;50.894;6.888;2023-07-13T04:08:26;18.80;1.00
4050;DHT22;2039;50.894;6.888;2023-07-13T04:10:52;19.00;1.00
4050;DHT22;2039;50.894;6.888;2023-07-13T04:13:18;18.90;1.00
4050;DHT22;2039;50.894;6.888;2023-07-13T04:15:43;19.00;1.00
4050;DHT22;2039;50.894;6.888;2023-07-13T04:18:09;19.10;1.00
4050;DHT22;2039;50.894;6.888;2023-07-13T04:20:34;18.90;1.00
4050;DHT22;2039;50.894;6.888;2023-07-13T04:23:00;19.00;1.00
4050;DHT22;2039;50.894;6.888;2023-07-13T04:25:26;19.10;1.00
4050;DHT22;2039;50.894;6.888;2023-07-13T04:27:53;19.10;1.00
4050;DHT22;2039;50.894;6.888;2023-07-13T04:30:19;19.20;1.00
4050;DHT22;2039;50.894;6.888;2023-07-13T04:32:45;19.30;1.00
4050;DHT22;2039;50.894;6.888;2023-07-13T04:35:11;19.30;1.00
4050;DHT22;2039;50.894;6.888;2023-07-13T04:37:36;19.30;1.00
4050;DHT22;2039;50.894;6.888;2023-07-13T04:40:03;19.30;1.00
4050;DHT22;2039;50.894;6.888;2023-07-13T04:42:31;19.20;1.00
4050;DHT22;2039;50.894;6.888;2023-07-13T04:44:57;19.30;1.00
4050;DHT22;2039;50.894;6.888;2023-07-13T04:47:23;19.50;1.00
4050;DHT22;2039;50.894;6.888;2023-07-13T04:49:49;19.90;1.00
4050;DHT22;2039;50.894;6.888;2023-07-13T04:52:14;20.40;1.00
4050;DHT22;2039;50.894;6.888;2023-07-13T04:54:40;20.70;1.00
4050;DHT22;2039;50.894;6.888;2023-07-13T04:57:06;21.10;1.00
4050;DHT22;2039;50.894;6.888;2023-07-13T04:59:33;21.40;1.00
4050;DHT22;2039;50.894;6.888;2023-07-13T05:01:58;21.50;1.00
4050;DHT22;2039;50.894;6.888;2023-07-13T05:04:24;21.40;1.00
4050;DHT22;2039;50.894;6.888;2023-07-13T05:06:50;21.60;1.00
4050;DHT22;2039;50.894;6.888;2023-07-13T05:09:16;21.80;1.00
4050;DHT22;2039;50.894;6.888;2023-07-13T05:11:42;21.70;1.00
4050;DHT22;2039;50.894;6.888;2023-07-13T05:14:08;21.40;1.00
4050;DHT22;2039;50.894;6.888;2023-07-13T05:16:35;21.00;1.00
4050;DHT22;2039;50.894;6.888;2023-07-13T05:19:02;20.90;1.00
4050;DHT22;2039;50.894;6.888;2023-07-13T05:21:28;20.50;1.00
4050;DHT22;2039;50.894;6.888;2023-07-13T05:23:53;20.60;1.00
4050;DHT22;2039;50.894;6.888;2023-07-13T05:26:19;20.40;1.00
4050;DHT22;2039;50.894;6.888;2023-07-13T05:28:46;20.40;1.00
4050;DHT22;2039;50.894;6.888;2023-07-13T05:31:12;20.40;1.00
4050;DHT22;2039;50.894;6.888;2023-07-13T05:33:38;20.10;1.00
4050;DHT22;2039;50.894;6.888;2023-07-13T05:36:03;20.10;1.00
4050;DHT22;2039;50.894;6.888;2023-07-13T05:38:29;20.10;1.00
4050;DHT22;2039;50.894;6.888;2023-07-13T05:40:56;20.00;1.00
4050;DHT22;2039;50.894;6.888;2023-07-13T05:43:22;20.10;1.00
4050;DHT22;2039;50.894;6.888;2023-07-13T05:45:48;19.90;1.00
4050;DHT22;2039;50.894;6.888;2023-07-13T05:48:15;19.90;1.00
4050;DHT22;2039;50.894;6.888;2023-07-13T05:50:41;20.00;1.00
4050;DHT22;2039;50.894;6.888;2023-07-13T05:53:06;19.90;1.00
4050;DHT22;2039;50.894;6.888;2023-07-13T05:55:33;20.00;1.00
4050;DHT22;2039;50.894;6.888;2023-07-13T05:57:59;19.90;1.00
4050;DHT22;2039;50.894;6.888;2023-07-13T06:00:25;19.90;1.00
4050;DHT22;2039;50.894;6.888;2023-07-13T06:02:51;19.80;1.00
4050;DHT22;2039;50.894;6.888;2023-07-13T06:05:17;19.80;1.00
4050;DHT22;2039;50.894;6.888;2023-07-13T06:07:43;19.70;1.00
4050;DHT22;2039;50.894;6.888;2023-07-13T06:10:09;19.60;1.00
4050;DHT22;2039;50.894;6.888;2023-07-13T06:12:35;19.80;1.00
4050;DHT22;2039;50.894;6.888;2023-07-13T06:15:00;19.80;1.00
4050;DHT22;2039;50.894;6.888;2023-07-13T06:17:26;19.70;1.00
4050;DHT22;2039;50.894;6.888;2023-07-13T06:19:52;19.60;1.00
4050;DHT22;2039;50.894;6.888;2023-07-13T06:22:17;19.80;1.00
4050;DHT22;2039;50.894;6.888;2023-07-13T06:24:43;19.70;1.00
4050;DHT22;2039;50.894;6.888;2023-07-13T06:27:08;19.60;1.00
4050;DHT22;2039;50.894;6.888;2023-07-13T06:29:34;19.60;1.00
4050;DHT22;2039;50.894;6.888;2023-07-13T06:32:00;19.50;1.00
4050;DHT22;2039;50.894;6.888;2023-07-13T06:34:26;19.60;1.00
4050;DHT22;2039;50.894;6.888;2023-07-13T06:36:51;19.70;1.00
4050;DHT22;2039;50.894;6.888;2023-07-13T06:39:17;19.70;1.00
4050;DHT22;2039;50.894;6.888;2023-07-13T06:41:43;19.60;1.00
4050;DHT22;2039;50.894;6.888;2023-07-13T06:44:08;19.60;1.00
4050;DHT22;2039;50.894;6.888;2023-07-13T06:46:34;19.60;1.00
4050;DHT22;2039;50.894;6.888;2023-07-13T06:49:00;19.50;1.00
4050;DHT22;2039;50.894;6.888;2023-07-13T06:51:25;19.50;1.00
4050;DHT22;2039;50.894;6.888;2023-07-13T06:53:51;19.60;1.00
4050;DHT22;2039;50.894;6.888;2023-07-13T06:56:17;19.70;1.00
4050;DHT22;2039;50.894;6.888;2023-07-13T06:58:43;19.60;1.00
4050;DHT22;2039;50.894;6.888;2023-07-13T07:01:08;19.60;1.00
4050;DHT22;2039;50.894;6.888;2023-07-13T07:03:34;19.70;1.00
4050;DHT22;2039;50.894;6.888;2023-07-13T07:06:22;19.70;1.00
4050;DHT22;2039;50.894;6.888;2023-07-13T07:08:50;19.60;1.00
4050;DHT22;2039;50.894;6.888;2023-07-13T07:11:25;19.50;1.00
4050;DHT22;2039;50.894;6.888;2023-07-13T07:13:52;19.40;1.00
4050;DHT22;2039;50.894;6.888;2023-07-13T07:16:19;19.50;1.00
4050;DHT22;2039;50.894;6.888;2023-07-13T07:18:45;19.50;1.00
4050;DHT22;2039;50.894;6.888;2023-07-13T07:21:12;19.50;1.00
4050;DHT22;2039;50.894;6.888;2023-07-13T07:23:38;19.50;1.00
4050;DHT22;2039;50.894;6.888;2023-07-13T07:26:04;19.50;1.00
4050;DHT22;2039;50.894;6.888;2023-07-13T07:28:30;19.50;1.00
4050;DHT22;2039;50.894;6.888;2023-07-13T07:30:57;19.70;1.00
4050;DHT22;2039;50.894;6.888;2023-07-13T07:33:24;19.70;1.00
4050;DHT22;2039;50.894;6.888;2023-07-13T07:35:50;19.90;1.00
4050;DHT22;2039;50.894;6.888;2023-07-13T07:38:15;20.10;1.00
4050;DHT22;2039;50.894;6.888;2023-07-13T07:40:42;20.30;1.00
4050;DHT22;2039;50.894;6.888;2023-07-13T07:43:09;20.50;1.00
4050;DHT22;2039;50.894;6.888;2023-07-13T07:45:35;20.70;1.00
4050;DHT22;2039;50.894;6.888;2023-07-13T07:48:03;20.70;1.00
4050;DHT22;2039;50.894;6.888;2023-07-13T07:50:29;20.90;1.00
4050;DHT22;2039;50.894;6.888;2023-07-13T07:52:55;20.90;1.00
4050;DHT22;2039;50.894;6.888;2023-07-13T07:55:21;21.10;1.00
4050;DHT22;2039;50.894;6.888;2023-07-13T07:57:47;21.20;1.00
4050;DHT22;2039;50.894;6.888;2023-07-13T08:00:14;21.20;1.00
4050;DHT22;2039;50.894;6.888;2023-07-13T08:02:40;21.30;1.00
4050;DHT22;2039;50.894;6.888;2023-07-13T08:05:07;21.30;1.00
4050;DHT22;2039;50.894;6.888;2023-07-13T08:07:34;21.50;1.00
4050;DHT22;2039;50.894;6.888;2023-07-13T08:10:00;21.60;1.00
4050;DHT22;2039;50.894;6.888;2023-07-13T08:12:26;21.80;1.00
4050;DHT22;2039;50.894;6.888;2023-07-13T08:14:51;21.90;1.00
4050;DHT22;2039;50.894;6.888;2023-07-13T08:17:23;21.90;1.00
4050;DHT22;2039;50.894;6.888;2023-07-13T08:19:49;21.80;1.00
4050;DHT22;2039;50.894;6.888;2023-07-13T08:22:14;21.80;1.00
4050;DHT22;2039;50.894;6.888;2023-07-13T08:24:40;22.00;1.00
4050;DHT22;2039;50.894;6.888;2023-07-13T08:27:08;22.00;1.00
4050;DHT22;2039;50.894;6.888;2023-07-13T08:29:33;22.10;1.00
4050;DHT22;2039;50.894;6.888;2023-07-13T08:31:59;22.20;1.00
4050;DHT22;2039;50.894;6.888;2023-07-13T08:34:25;22.30;1.00
4050;DHT22;2039;50.894;6.888;2023-07-13T08:36:50;22.40;1.00
4050;DHT22;2039;50.894;6.888;2023-07-13T08:39:16;22.40;1.00
4050;DHT22;2039;50.894;6.888;2023-07-13T08:41:45;22.50;1.00
4050;DHT22;2039;50.894;6.888;2023-07-13T08:47:21;22.60;1.00
4050;DHT22;2039;50.894;6.888;2023-07-13T08:49:47;22.60;1.00
4050;DHT22;2039;50.894;6.888;2023-07-13T08:54:47;22.80;1.00
4050;DHT22;2039;50.894;6.888;2023-07-13T08:57:19;22.80;1.00
4050;DHT22;2039;50.894;6.888;2023-07-13T08:59:46;22.70;1.00
4050;DHT22;2039;50.894;6.888;2023-07-13T09:02:17;22.70;1.00
4050;DHT22;2039;50.894;6.888;2023-07-13T09:05:04;22.80;1.00
4050;DHT22;2039;50.894;6.888;2023-07-13T09:10:21;22.80;1.00
4050;DHT22;2039;50.894;6.888;2023-07-13T09:12:57;22.80;1.00
4050;DHT22;2039;50.894;6.888;2023-07-13T09:15:34;22.90;1.00
4050;DHT22;2039;50.894;6.888;2023-07-13T09:18:14;22.80;1.00
4050;DHT22;2039;50.894;6.888;2023-07-13T09:20:49;22.90;1.00
4050;DHT22;2039;50.894;6.888;2023-07-13T09:23:19;23.10;1.00
4050;DHT22;2039;50.894;6.888;2023-07-13T09:25:48;23.20;1.00
4050;DHT22;2039;50.894;6.888;2023-07-13T09:28:24;23.40;1.00
4050;DHT22;2039;50.894;6.888;2023-07-13T09:33:37;23.50;1.00
4050;DHT22;2039;50.894;6.888;2023-07-13T09:36:21;23.50;1.00
4050;DHT22;2039;50.894;6.888;2023-07-13T09:38:57;23.70;1.00
4050;DHT22;2039;50.894;6.888;2023-07-13T09:41:33;23.70;1.00
4050;DHT22;2039;50.894;6.888;2023-07-13T09:46:34;23.70;1.00
4050;DHT22;2039;50.894;6.888;2023-07-13T09:49:00;23.80;1.00
4050;DHT22;2039;50.894;6.888;2023-07-13T09:51:25;23.90;1.00
4050;DHT22;2039;50.894;6.888;2023-07-13T09:53:54;24.00;1.00
4050;DHT22;2039;50.894;6.888;2023-07-13T09:56:27;24.30;1.00
4050;DHT22;2039;50.894;6.888;2023-07-13T09:58:53;24.20;1.00
4050;DHT22;2039;50.894;6.888;2023-07-13T10:01:38;24.20;1.00
4050;DHT22;2039;50.894;6.888;2023-07-13T10:04:12;24.20;1.00
4050;DHT22;2039;50.894;6.888;2023-07-13T10:06:39;24.00;1.00
4050;DHT22;2039;50.894;6.888;2023-07-13T10:09:09;24.10;1.00
4050;DHT22;2039;50.894;6.888;2023-07-13T10:11:36;24.10;1.00
4050;DHT22;2039;50.894;6.888;2023-07-13T10:16:38;24.30;1.00
4050;DHT22;2039;50.894;6.888;2023-07-13T10:21:40;24.40;1.00
4050;DHT22;2039;50.894;6.888;2023-07-13T10:26:51;24.50;1.00
4050;DHT22;2039;50.894;6.888;2023-07-13T10:29:17;24.50;1.00
4050;DHT22;2039;50.894;6.888;2023-07-13T10:31:45;24.60;1.00
4050;DHT22;2039;50.894;6.888;2023-07-13T10:34:14;24.70;1.00
4050;DHT22;2039;50.894;6.888;2023-07-13T10:36:44;24.90;1.00
4050;DHT22;2039;50.894;6.888;2023-07-13T10:39:26;25.00;1.00
4050;DHT22;2039;50.894;6.888;2023-07-13T10:41:55;25.10;1.00
4050;DHT22;2039;50.894;6.888;2023-07-13T10:44:26;25.00;1.00
4050;DHT22;2039;50.894;6.888;2023-07-13T10:46:56;25.10;1.00
4050;DHT22;2039;50.894;6.888;2023-07-13T10:49:23;24.90;1.00
4050;DHT22;2039;50.894;6.888;2023-07-13T10:51:49;24.80;1.00
4050;DHT22;2039;50.894;6.888;2023-07-13T10:56:45;24.90;1.00
4050;DHT22;2039;50.894;6.888;2023-07-13T10:59:15;25.10;1.00
4050;DHT22;2039;50.894;6.888;2023-07-13T11:04:18;25.10;1.00
4050;DHT22;2039;50.894;6.888;2023-07-13T11:06:47;25.00;1.00
4050;DHT22;2039;50.894;6.888;2023-07-13T11:14:42;24.20;1.00
4050;DHT22;2039;50.894;6.888;2023-07-13T11:19:54;24.20;1.00
4050;DHT22;2039;50.894;6.888;2023-07-13T11:22:46;24.10;1.00
4050;DHT22;2039;50.894;6.888;2023-07-13T11:38:41;24.30;1.00
4050;DHT22;2039;50.894;6.888;2023-07-13T11:41:19;24.10;1.00
4050;DHT22;2039;50.894;6.888;2023-07-13T11:43:48;24.00;1.00
4050;DHT22;2039;50.894;6.888;2023-07-13T11:46:25;23.90;1.00
4050;DHT22;2039;50.894;6.888;2023-07-13T11:48:52;23.90;1.00
4050;DHT22;2039;50.894;6.888;2023-07-13T11:51:25;24.00;1.00
4050;DHT22;2039;50.894;6.888;2023-07-13T11:53:54;24.20;1.00
4050;DHT22;2039;50.894;6.888;2023-07-13T11:56:21;24.40;1.00
4050;DHT22;2039;50.894;6.888;2023-07-13T11:58:52;24.50;1.00
4050;DHT22;2039;50.894;6.888;2023-07-13T12:01:27;24.60;1.00
4050;DHT22;2039;50.894;6.888;2023-07-13T12:04:00;24.40;1.00
4050;DHT22;2039;50.894;6.888;2023-07-13T12:06:32;24.20;1.00
4050;DHT22;2039;50.894;6.888;2023-07-13T12:09:00;24.20;1.00
4050;DHT22;2039;50.894;6.888;2023-07-13T12:11:27;24.10;1.00
4050;DHT22;2039;50.894;6.888;2023-07-13T12:13:52;24.20;1.00
4050;DHT22;2039;50.894;6.888;2023-07-13T12:16:45;24.20;1.00
4050;DHT22;2039;50.894;6.888;2023-07-13T12:19:23;24.30;1.00
4050;DHT22;2039;50.894;6.888;2023-07-13T12:21:52;24.20;1.00
4050;DHT22;2039;50.894;6.888;2023-07-13T12:24:20;24.20;1.00
4050;DHT22;2039;50.894;6.888;2023-07-13T12:27:00;24.40;1.00
4050;DHT22;2039;50.894;6.888;2023-07-13T12:29:27;24.50;1.00
4050;DHT22;2039;50.894;6.888;2023-07-13T12:31:53;24.60;1.00
4050;DHT22;2039;50.894;6.888;2023-07-13T12:34:23;24.70;1.00
4050;DHT22;2039;50.894;6.888;2023-07-13T12:36:59;24.70;1.00
4050;DHT22;2039;50.894;6.888;2023-07-13T12:39:36;24.70;1.00
4050;DHT22;2039;50.894;6.888;2023-07-13T12:47:25;24.90;1.00
4050;DHT22;2039;50.894;6.888;2023-07-13T12:49:57;25.10;1.00
4050;DHT22;2039;50.894;6.888;2023-07-13T12:52:34;25.00;1.00
4050;DHT22;2039;50.894;6.888;2023-07-13T12:55:11;24.80;1.00
4050;DHT22;2039;50.894;6.888;2023-07-13T12:58:02;24.80;1.00
4050;DHT22;2039;50.894;6.888;2023-07-13T13:00:31;24.80;1.00
4050;DHT22;2039;50.894;6.888;2023-07-13T13:03:30;24.70;1.00
4050;DHT22;2039;50.894;6.888;2023-07-13T13:06:04;24.90;1.00
4050;DHT22;2039;50.894;6.888;2023-07-13T13:08:38;25.20;1.00
4050;DHT22;2039;50.894;6.888;2023-07-13T13:11:06;25.50;1.00
4050;DHT22;2039;50.894;6.888;2023-07-13T13:13:35;25.70;1.00
4050;DHT22;2039;50.894;6.888;2023-07-13T13:18:53;26.00;1.00
4050;DHT22;2039;50.894;6.888;2023-07-13T13:21:20;26.10;1.00
4050;DHT22;2039;50.894;6.888;2023-07-13T13:23:46;26.00;1.00
4050;DHT22;2039;50.894;6.888;2023-07-13T13:26:14;26.00;1.00
4050;DHT22;2039;50.894;6.888;2023-07-13T13:28:43;26.20;1.00
4050;DHT22;2039;50.894;6.888;2023-07-13T13:31:10;26.40;1.00
4050;DHT22;2039;50.894;6.888;2023-07-13T13:33:39;26.60;1.00
4050;DHT22;2039;50.894;6.888;2023-07-13T13:36:24;26.60;1.00
4050;DHT22;2039;50.894;6.888;2023-07-13T13:38:50;26.70;1.00
4050;DHT22;2039;50.894;6.888;2023-07-13T13:41:16;26.60;1.00
4050;DHT22;2039;50.894;6.888;2023-07-13T13:43:43;26.60;1.00
4050;DHT22;2039;50.894;6.888;2023-07-13T13:46:22;26.70;1.00
4050;DHT22;2039;50.894;6.888;2023-07-13T13:48:51;26.90;1.00
4050;DHT22;2039;50.894;6.888;2023-07-13T13:53:42;27.00;1.00
4050;DHT22;2039;50.894;6.888;2023-07-13T13:56:08;27.00;1.00
4050;DHT22;2039;50.894;6.888;2023-07-13T13:58:34;26.80;1.00
4050;DHT22;2039;50.894;6.888;2023-07-13T14:01:00;26.60;1.00
4050;DHT22;2039;50.894;6.888;2023-07-13T14:03:26;26.70;1.00
4050;DHT22;2039;50.894;6.888;2023-07-13T14:05:53;26.70;1.00
4050;DHT22;2039;50.894;6.888;2023-07-13T14:08:21;26.70;1.00
4050;DHT22;2039;50.894;6.888;2023-07-13T14:10:49;26.40;1.00
4050;DHT22;2039;50.894;6.888;2023-07-13T14:13:18;26.30;1.00
4050;DHT22;2039;50.894;6.888;2023-07-13T14:15:45;26.20;1.00
4050;DHT22;2039;50.894;6.888;2023-07-13T14:18:11;26.30;1.00
4050;DHT22;2039;50.894;6.888;2023-07-13T14:20:37;26.30;1.00
4050;DHT22;2039;50.894;6.888;2023-07-13T14:23:03;26.30;1.00
4050;DHT22;2039;50.894;6.888;2023-07-13T14:25:28;26.50;1.00
4050;DHT22;2039;50.894;6.888;2023-07-13T14:27:57;26.60;1.00
4050;DHT22;2039;50.894;6.888;2023-07-13T14:30:25;26.60;1.00
4050;DHT22;2039;50.894;6.888;2023-07-13T14:32:51;26.70;1.00
4050;DHT22;2039;50.894;6.888;2023-07-13T14:35:18;26.80;1.00
4050;DHT22;2039;50.894;6.888;2023-07-13T14:37:46;26.80;1.00
4050;DHT22;2039;50.894;6.888;2023-07-13T14:40:24;27.00;1.00
4050;DHT22;2039;50.894;6.888;2023-07-13T14:42:50;27.10;1.00
4050;DHT22;2039;50.894;6.888;2023-07-13T14:45:19;27.20;1.00
4050;DHT22;2039;50.894;6.888;2023-07-13T14:47:45;27.00;1.00
4050;DHT22;2039;50.894;6.888;2023-07-13T14:50:21;27.20;1.00
4050;DHT22;2039;50.894;6.888;2023-07-13T14:52:47;27.30;1.00
4050;DHT22;2039;50.894;6.888;2023-07-13T14:55:18;27.20;1.00
4050;DHT22;2039;50.894;6.888;2023-07-13T14:57:44;27.20;1.00
4050;DHT22;2039;50.894;6.888;2023-07-13T15:00:19;27.20;1.00
4050;DHT22;2039;50.894;6.888;2023-07-13T15:02:48;27.10;1.00
4050;DHT22;2039;50.894;6.888;2023-07-13T15:05:17;27.20;1.00
4050;DHT22;2039;50.894;6.888;2023-07-13T15:07:43;27.20;1.00
4050;DHT22;2039;50.894;6.888;2023-07-13T15:10:20;27.30;1.00
4050;DHT22;2039;50.894;6.888;2023-07-13T15:12:46;27.50;1.00
4050;DHT22;2039;50.894;6.888;2023-07-13T15:15:12;27.60;1.00
4050;DHT22;2039;50.894;6.888;2023-07-13T15:17:41;27.60;1.00
4050;DHT22;2039;50.894;6.888;2023-07-13T15:20:31;27.60;1.00
4050;DHT22;2039;50.894;6.888;2023-07-13T15:22:58;27.80;1.00
4050;DHT22;2039;50.894;6.888;2023-07-13T15:25:26;28.00;1.00
4050;DHT22;2039;50.894;6.888;2023-07-13T15:27:54;27.90;1.00
4050;DHT22;2039;50.894;6.888;2023-07-13T15:30:21;27.70;1.00
4050;DHT22;2039;50.894;6.888;2023-07-13T15:32:47;27.60;1.00
4050;DHT22;2039;50.894;6.888;2023-07-13T15:37:40;27.50;1.00
4050;DHT22;2039;50.894;6.888;2023-07-13T15:40:06;27.70;1.00
4050;DHT22;2039;50.894;6.888;2023-07-13T15:42:32;27.70;1.00
4050;DHT22;2039;50.894;6.888;2023-07-13T15:44:58;27.50;1.00
4050;DHT22;2039;50.894;6.888;2023-07-13T15:47:23;27.10;1.00
4050;DHT22;2039;50.894;6.888;2023-07-13T15:49:49;26.80;1.00
4050;DHT22;2039;50.894;6.888;2023-07-13T15:52:22;26.40;1.00
4050;DHT22;2039;50.894;6.888;2023-07-13T15:54:49;26.40;1.00
4050;DHT22;2039;50.894;6.888;2023-07-13T15:57:15;26.30;1.00
4050;DHT22;2039;50.894;6.888;2023-07-13T15:59:41;26.00;1.00
4050;DHT22;2039;50.894;6.888;2023-07-13T16:02:18;25.70;1.00
4050;DHT22;2039;50.894;6.888;2023-07-13T16:04:44;25.50;1.00
4050;DHT22;2039;50.894;6.888;2023-07-13T16:07:11;24.80;1.00
4050;DHT22;2039;50.894;6.888;2023-07-13T16:09:39;24.60;1.00
4050;DHT22;2039;50.894;6.888;2023-07-13T16:12:15;24.30;1.00
4050;DHT22;2039;50.894;6.888;2023-07-13T16:14:41;24.00;1.00
4050;DHT22;2039;50.894;6.888;2023-07-13T16:17:13;23.80;1.00
4050;DHT22;2039;50.894;6.888;2023-07-13T16:19:40;23.60;1.00
4050;DHT22;2039;50.894;6.888;2023-07-13T16:22:17;23.50;1.00
4050;DHT22;2039;50.894;6.888;2023-07-13T16:24:45;23.40;1.00
4050;DHT22;2039;50.894;6.888;2023-07-13T16:27:12;23.40;1.00
4050;DHT22;2039;50.894;6.888;2023-07-13T16:29:38;23.30;1.00
4050;DHT22;2039;50.894;6.888;2023-07-13T16:32:22;23.40;1.00
4050;DHT22;2039;50.894;6.888;2023-07-13T16:34:47;23.40;1.00
4050;DHT22;2039;50.894;6.888;2023-07-13T16:37:26;23.40;1.00
4050;DHT22;2039;50.894;6.888;2023-07-13T16:39:57;23.40;1.00
4050;DHT22;2039;50.894;6.888;2023-07-13T16:42:24;23.50;1.00
4050;DHT22;2039;50.894;6.888;2023-07-13T16:44:49;23.60;1.00
4050;DHT22;2039;50.894;6.888;2023-07-13T16:47:17;23.80;1.00
4050;DHT22;2039;50.894;6.888;2023-07-13T16:49:44;23.90;1.00
4050;DHT22;2039;50.894;6.888;2023-07-13T16:52:15;23.80;1.00
4050;DHT22;2039;50.894;6.888;2023-07-13T16:54:45;23.70;1.00
4050;DHT22;2039;50.894;6.888;2023-07-13T16:57:17;23.80;1.00
4050;DHT22;2039;50.894;6.888;2023-07-13T16:59:44;23.90;1.00
4050;DHT22;2039;50.894;6.888;2023-07-13T17:04:49;23.80;1.00
4050;DHT22;2039;50.894;6.888;2023-07-13T17:07:15;23.70;1.00
4050;DHT22;2039;50.894;6.888;2023-07-13T17:09:45;23.50;1.00
4050;DHT22;2039;50.894;6.888;2023-07-13T17:12:12;23.70;1.00
4050;DHT22;2039;50.894;6.888;2023-07-13T17:14:38;23.80;1.00
4050;DHT22;2039;50.894;6.888;2023-07-13T17:17:17;24.00;1.00
4050;DHT22;2039;50.894;6.888;2023-07-13T17:19:43;24.40;1.00
4050;DHT22;2039;50.894;6.888;2023-07-13T17:22:14;24.60;1.00
4050;DHT22;2039;50.894;6.888;2023-07-13T17:24:46;24.70;1.00
4050;DHT22;2039;50.894;6.888;2023-07-13T17:27:14;24.80;1.00
4050;DHT22;2039;50.894;6.888;2023-07-13T17:29:41;24.80;1.00
4050;DHT22;2039;50.894;6.888;2023-07-13T17:32:12;24.70;1.00